createdAt,value
2017-08-15T00:01:45.458Z,10.10
2017-08-15T00:04:11.880Z,6.90
2017-08-15T00:06:38.294Z,7.27
2017-08-15T00:09:04.667Z,6.97
2017-08-15T00:11:31.052Z,6.90
2017-08-15T00:13:57.467Z,7.50
2017-08-15T00:16:23.854Z,6.43
2017-08-15T00:18:50.225Z,6.30
2017-08-15T00:21:16.602Z,7.40
2017-08-15T00:23:42.967Z,6.73
2017-08-15T00:26:09.364Z,6.33
2017-08-15T00:28:35.765Z,6.67
2017-08-15T00:31:02.173Z,6.63
2017-08-15T00:33:28.614Z,6.80
2017-08-15T00:35:55.019Z,10.23
2017-08-15T00:38:21.448Z,6.90
2017-08-15T00:40:47.846Z,6.07
2017-08-15T00:43:14.208Z,7.40
2017-08-15T00:45:40.588Z,7.60
2017-08-15T00:48:06.968Z,6.73
2017-08-15T00:50:33.414Z,6.80
2017-08-15T00:52:59.855Z,5.90
2017-08-15T00:55:26.272Z,5.70
2017-08-15T00:57:52.720Z,6.07
2017-08-15T01:00:19.136Z,5.97
2017-08-15T01:02:45.558Z,5.90
2017-08-15T01:05:11.958Z,6.60
2017-08-15T01:07:38.368Z,5.83
2017-08-15T01:10:04.775Z,8.27
2017-08-15T01:12:31.152Z,6.30
2017-08-15T01:14:57.523Z,6.30
2017-08-15T01:17:23.920Z,5.17
2017-08-15T01:19:50.390Z,5.40
2017-08-15T01:22:16.847Z,10.33
2017-08-15T01:24:43.232Z,6.30
2017-08-15T01:27:09.604Z,6.03
2017-08-15T01:29:35.977Z,6.43
2017-08-15T01:32:02.357Z,5.90
2017-08-15T01:34:28.765Z,7.97
2017-08-15T01:36:55.133Z,7.00
2017-08-15T01:39:21.582Z,7.17
2017-08-15T01:41:47.967Z,6.53
2017-08-15T01:44:14.331Z,6.90
2017-08-15T01:46:40.721Z,7.03
2017-08-15T01:49:07.126Z,7.30
2017-08-15T01:51:33.506Z,8.17
2017-08-15T01:53:59.965Z,7.13
2017-08-15T01:56:26.356Z,7.50
2017-08-15T01:58:52.736Z,7.00
2017-08-15T02:01:19.130Z,10.97
2017-08-15T02:03:45.542Z,10.30
2017-08-15T02:06:11.933Z,6.90
2017-08-15T02:08:38.326Z,8.13
2017-08-15T02:11:04.723Z,6.70
2017-08-15T02:13:31.139Z,7.20
2017-08-15T02:15:57.497Z,6.70
2017-08-15T02:18:23.888Z,6.30
2017-08-15T02:20:50.279Z,5.97
2017-08-15T02:23:16.656Z,5.77
2017-08-15T02:25:43.060Z,7.40
2017-08-15T02:28:09.437Z,7.03
2017-08-15T02:30:35.851Z,6.40
2017-08-15T02:33:02.218Z,7.60
2017-08-15T02:35:28.584Z,6.00
2017-08-15T02:37:54.977Z,7.87
2017-08-15T02:40:21.350Z,6.60
2017-08-15T02:42:47.771Z,6.73
2017-08-15T02:45:14.136Z,5.90
2017-08-15T02:47:40.492Z,6.60
2017-08-15T02:50:06.869Z,6.43
2017-08-15T02:52:33.302Z,6.33
2017-08-15T02:54:59.738Z,6.93
2017-08-15T02:57:26.135Z,5.40
2017-08-15T02:59:52.563Z,6.60
2017-08-15T03:02:19.016Z,6.13
2017-08-15T03:04:45.410Z,7.53
2017-08-15T03:07:11.816Z,6.73
2017-08-15T03:09:38.204Z,7.73
2017-08-15T03:12:04.587Z,8.73
2017-08-15T03:14:30.999Z,6.53
2017-08-15T03:16:57.361Z,8.80
2017-08-15T03:19:23.804Z,7.90
2017-08-15T03:21:50.214Z,6.87
2017-08-15T03:24:16.633Z,7.80
2017-08-15T03:26:43.040Z,7.60
2017-08-15T03:29:09.404Z,8.70
2017-08-15T03:31:35.776Z,6.97
2017-08-15T03:34:02.192Z,6.80
2017-08-15T03:36:28.562Z,6.97
2017-08-15T03:38:54.938Z,7.10
2017-08-15T03:41:21.287Z,8.13
2017-08-15T03:43:47.650Z,6.23
2017-08-15T03:46:14.009Z,6.67
2017-08-15T03:48:40.421Z,7.17
2017-08-15T03:51:06.863Z,8.20
2017-08-15T03:53:33.249Z,7.37
2017-08-15T03:55:59.647Z,8.20
2017-08-15T03:58:26.053Z,6.70
2017-08-15T04:00:52.444Z,8.37
2017-08-15T04:03:18.821Z,6.60
2017-08-15T04:05:45.196Z,6.90
2017-08-15T04:08:11.535Z,7.80
2017-08-15T04:10:37.939Z,6.63
2017-08-15T04:13:04.327Z,6.50
2017-08-15T04:15:30.714Z,6.80
2017-08-15T04:17:57.085Z,7.00
2017-08-15T04:20:23.461Z,6.20
2017-08-15T04:22:49.840Z,6.70
2017-08-15T04:25:16.233Z,6.00
2017-08-15T04:27:42.630Z,6.90
2017-08-15T04:30:08.978Z,6.40
2017-08-15T04:32:35.400Z,8.33
2017-08-15T04:35:01.874Z,7.70
2017-08-15T04:37:28.268Z,6.80
2017-08-15T04:39:54.633Z,7.83
2017-08-15T04:42:21.036Z,7.03
2017-08-15T04:44:47.626Z,7.63
2017-08-15T04:47:13.994Z,7.70
2017-08-15T04:49:40.377Z,7.03
2017-08-15T04:52:06.749Z,7.50
2017-08-15T04:54:33.138Z,7.33
2017-08-15T04:56:59.518Z,7.53
2017-08-15T04:59:25.874Z,6.00
2017-08-15T05:01:52.285Z,6.80
2017-08-15T05:04:18.696Z,6.87
2017-08-15T05:06:45.080Z,8.53
2017-08-15T05:09:11.490Z,8.03
2017-08-15T05:11:37.909Z,6.80
2017-08-15T05:14:04.314Z,7.40
2017-08-15T05:16:30.695Z,6.53
2017-08-15T05:18:57.116Z,6.80
2017-08-15T05:21:23.756Z,7.70
2017-08-15T05:23:50.148Z,7.87
2017-08-15T05:26:16.555Z,7.60
2017-08-15T05:28:42.926Z,7.63
2017-08-15T05:31:09.309Z,9.23
2017-08-15T05:33:35.681Z,7.20
2017-08-15T05:36:02.066Z,9.33
2017-08-15T05:38:29.341Z,7.30
2017-08-15T05:40:55.717Z,7.67
2017-08-15T05:43:22.161Z,7.60
2017-08-15T05:45:48.550Z,6.00
2017-08-15T05:48:14.953Z,8.20
2017-08-15T05:50:41.323Z,11.00
2017-08-15T05:53:07.698Z,8.20
2017-08-15T05:55:34.100Z,9.23
2017-08-15T05:58:00.482Z,7.10
2017-08-15T06:00:26.918Z,7.53
2017-08-15T06:02:53.297Z,7.60
2017-08-15T06:05:19.686Z,7.87
2017-08-15T06:07:46.076Z,6.70
2017-08-15T06:10:12.461Z,8.50
2017-08-15T06:12:38.876Z,9.80
2017-08-15T06:15:05.263Z,7.00
2017-08-15T06:17:31.625Z,8.70
2017-08-15T06:19:58.012Z,7.00
2017-08-15T06:22:24.394Z,8.00
2017-08-15T06:24:50.831Z,6.50
2017-08-15T06:27:17.204Z,6.30
2017-08-15T06:29:43.640Z,6.93
2017-08-15T06:32:10.050Z,6.07
2017-08-15T06:34:36.443Z,5.80
2017-08-15T06:37:02.897Z,6.23
2017-08-15T06:39:29.317Z,5.70
2017-08-15T06:41:55.695Z,6.17
2017-08-15T06:44:22.086Z,5.63
2017-08-15T06:46:48.452Z,6.37
2017-08-15T06:49:14.849Z,6.93
2017-08-15T06:51:41.257Z,5.20
2017-08-15T06:54:07.659Z,6.70
2017-08-15T06:56:34.065Z,6.40
2017-08-15T06:59:00.456Z,6.17
2017-08-15T07:01:26.831Z,8.90
2017-08-15T07:03:53.215Z,5.30
2017-08-15T07:06:19.593Z,5.73
2017-08-15T07:08:45.999Z,6.40
2017-08-15T07:11:12.374Z,5.47
2017-08-15T07:13:38.770Z,5.70
2017-08-15T07:16:05.164Z,5.40
2017-08-15T07:18:31.535Z,5.60
2017-08-15T07:20:57.894Z,4.90
2017-08-15T07:23:24.319Z,6.13
2017-08-15T07:25:50.711Z,4.23
2017-08-15T07:28:17.128Z,4.37
2017-08-15T07:30:43.527Z,5.27
2017-08-15T07:33:10.613Z,5.17
2017-08-15T07:35:37.040Z,5.30
2017-08-15T07:38:03.447Z,4.43
2017-08-15T07:40:29.874Z,4.90
2017-08-15T07:42:56.259Z,4.93
2017-08-15T07:45:22.674Z,5.10
2017-08-15T07:47:49.092Z,4.47
2017-08-15T07:50:15.474Z,4.97
2017-08-15T07:52:41.869Z,4.57
2017-08-15T07:55:08.248Z,5.47
2017-08-15T07:57:34.659Z,4.07
2017-08-15T08:00:01.167Z,4.70
2017-08-15T08:02:27.551Z,5.23
2017-08-15T08:04:54.776Z,4.20
2017-08-15T08:07:21.190Z,5.00
2017-08-15T08:09:48.250Z,5.10
2017-08-15T08:12:14.841Z,5.50
2017-08-15T08:14:41.206Z,9.50
2017-08-15T08:17:07.595Z,4.80
2017-08-15T08:19:33.939Z,8.77
2017-08-15T08:22:00.338Z,6.47
2017-08-15T08:24:26.752Z,4.60
2017-08-15T08:26:53.148Z,3.97
2017-08-15T08:29:19.572Z,4.17
2017-08-15T08:31:47.544Z,4.37
2017-08-15T08:34:13.971Z,4.10
2017-08-15T08:36:45.308Z,4.67
2017-08-15T08:39:13.148Z,4.70
2017-08-15T08:41:39.557Z,4.33
2017-08-15T08:44:05.929Z,4.53
2017-08-15T08:46:32.336Z,4.70
2017-08-15T08:48:58.730Z,4.07
2017-08-15T08:51:25.128Z,5.10
2017-08-15T08:53:51.524Z,4.17
2017-08-15T08:56:17.920Z,5.00
2017-08-15T08:58:44.335Z,6.20
2017-08-15T09:01:10.734Z,6.20
2017-08-15T09:03:37.158Z,5.33
2017-08-15T09:06:03.575Z,4.90
2017-08-15T09:08:29.998Z,5.23
2017-08-15T09:10:56.376Z,4.80
2017-08-15T09:13:22.840Z,7.40
2017-08-15T09:15:49.259Z,4.83
2017-08-15T09:18:15.771Z,4.30
2017-08-15T09:20:42.185Z,4.40
2017-08-15T09:23:08.610Z,4.23
2017-08-15T09:25:35.035Z,5.47
2017-08-15T09:28:01.488Z,4.87
2017-08-15T09:30:27.936Z,7.53
2017-08-15T09:32:54.335Z,4.20
2017-08-15T09:35:20.740Z,4.70
2017-08-15T09:37:47.140Z,4.13
2017-08-15T09:40:13.582Z,4.57
2017-08-15T09:42:40.043Z,4.17
2017-08-15T09:45:06.450Z,7.90
2017-08-15T09:47:32.935Z,8.00
2017-08-15T09:49:59.325Z,5.27
2017-08-15T09:52:25.786Z,5.90
2017-08-15T09:54:52.185Z,4.77
2017-08-15T09:57:18.577Z,5.37
2017-08-15T09:59:44.993Z,4.93
2017-08-15T10:02:11.432Z,9.43
2017-08-15T10:04:37.874Z,4.40
2017-08-15T10:07:04.388Z,5.77
2017-08-15T10:09:30.798Z,5.20
2017-08-15T10:11:57.218Z,5.57
2017-08-15T10:14:23.613Z,4.63
2017-08-15T10:16:50.040Z,9.10
2017-08-15T10:19:16.519Z,4.80
2017-08-15T10:21:43.017Z,9.73
2017-08-15T10:24:09.433Z,5.13
2017-08-15T10:26:35.824Z,5.27
2017-08-15T10:29:02.241Z,4.90
2017-08-15T10:31:28.605Z,5.80
2017-08-15T10:33:55.055Z,7.87
2017-08-15T10:36:21.438Z,5.33
2017-08-15T10:38:47.827Z,6.53
2017-08-15T10:41:14.212Z,5.17
2017-08-15T10:43:40.611Z,5.37
2017-08-15T10:46:07.015Z,8.17
2017-08-15T10:48:33.405Z,4.83
2017-08-15T10:50:59.839Z,5.00
2017-08-15T10:53:26.254Z,6.40
2017-08-15T10:55:52.631Z,6.20
2017-08-15T10:58:19.094Z,6.60
2017-08-15T11:00:45.541Z,6.47
2017-08-15T11:03:11.909Z,7.03
2017-08-15T11:05:38.340Z,5.93
2017-08-15T11:08:04.730Z,5.60
2017-08-15T11:10:31.106Z,5.23
2017-08-15T11:12:57.510Z,6.23
2017-08-15T11:15:24.209Z,5.83
2017-08-15T11:17:50.678Z,5.87
2017-08-15T11:20:17.123Z,7.77
2017-08-15T11:22:43.501Z,4.43
2017-08-15T11:25:10.477Z,5.83
2017-08-15T11:27:36.865Z,4.83
2017-08-15T11:30:03.292Z,4.80
2017-08-15T11:32:29.691Z,4.80
2017-08-15T11:34:56.077Z,5.90
2017-08-15T11:37:22.480Z,5.47
2017-08-15T11:39:49.873Z,5.13
2017-08-15T11:42:16.332Z,4.43
2017-08-15T11:44:42.710Z,6.77
2017-08-15T11:47:09.116Z,3.33
2017-08-15T11:49:35.512Z,5.80
2017-08-15T11:52:01.920Z,5.43
2017-08-15T11:54:28.307Z,6.63
2017-08-15T11:56:54.697Z,6.70
2017-08-15T11:59:21.067Z,4.53
2017-08-15T12:01:47.446Z,3.37
2017-08-15T12:04:13.823Z,4.00
2017-08-15T12:06:40.243Z,5.63
2017-08-15T12:09:07.291Z,3.43
2017-08-15T12:11:33.726Z,5.13
2017-08-15T12:14:00.121Z,5.83
2017-08-15T12:16:26.519Z,5.93
2017-08-15T12:18:52.921Z,5.60
2017-08-15T12:21:19.303Z,7.80
2017-08-15T12:23:45.699Z,3.57
2017-08-15T12:26:12.083Z,3.13
2017-08-15T12:28:38.470Z,6.40
2017-08-15T12:31:04.899Z,3.83
2017-08-15T12:33:31.299Z,3.80
2017-08-15T12:35:57.699Z,4.17
2017-08-15T12:38:24.076Z,3.83
2017-08-15T12:40:50.471Z,5.80
2017-08-15T12:43:16.867Z,6.10
2017-08-15T12:45:43.295Z,5.27
2017-08-15T12:48:09.703Z,6.00
2017-08-15T12:50:36.103Z,4.33
2017-08-15T12:53:02.515Z,4.67
2017-08-15T12:55:28.948Z,4.17
2017-08-15T12:57:55.356Z,7.30
2017-08-15T13:00:21.754Z,5.97
2017-08-15T13:02:48.143Z,5.83
2017-08-15T13:05:14.640Z,6.60
2017-08-15T13:07:41.047Z,5.03
2017-08-15T13:10:07.459Z,4.80
2017-08-15T13:12:33.955Z,4.67
2017-08-15T13:15:00.367Z,4.23
2017-08-15T13:17:26.750Z,5.47
2017-08-15T13:19:53.167Z,7.00
2017-08-15T13:22:19.687Z,9.30
2017-08-15T13:24:46.128Z,5.70
2017-08-15T13:27:12.572Z,6.07
2017-08-15T13:29:39.078Z,3.33
2017-08-15T13:32:05.503Z,7.17
2017-08-15T13:34:31.955Z,5.23
2017-08-15T13:36:58.417Z,7.43
2017-08-15T13:39:24.886Z,7.43
2017-08-15T13:41:51.303Z,5.00
2017-08-15T13:44:17.740Z,4.33
2017-08-15T13:46:44.240Z,5.53
2017-08-15T13:49:10.689Z,5.10
2017-08-15T13:51:37.083Z,8.27
2017-08-15T13:54:03.476Z,4.63
2017-08-15T13:56:29.887Z,5.27
2017-08-15T13:58:56.323Z,4.80
2017-08-15T14:01:22.759Z,3.97
2017-08-15T14:03:49.194Z,4.77
2017-08-15T14:06:15.636Z,4.73
2017-08-15T14:08:42.107Z,4.47
2017-08-15T14:11:08.539Z,3.57
2017-08-15T14:13:34.965Z,5.73
2017-08-15T14:16:01.414Z,5.10
2017-08-15T14:18:27.882Z,4.80
2017-08-15T14:20:54.283Z,5.13
2017-08-15T14:23:20.705Z,3.90
2017-08-15T14:25:47.127Z,3.97
2017-08-15T14:28:13.531Z,3.80
2017-08-15T14:30:39.973Z,6.80
2017-08-15T14:33:06.419Z,6.13
2017-08-15T14:35:32.857Z,3.20
2017-08-15T14:37:59.234Z,4.43
2017-08-15T14:40:25.642Z,4.20
2017-08-15T14:42:52.120Z,3.47
2017-08-15T14:45:18.503Z,6.10
2017-08-15T14:47:44.895Z,5.73
2017-08-15T14:50:11.321Z,3.77
2017-08-15T14:52:37.764Z,4.60
2017-08-15T14:55:04.174Z,4.03
2017-08-15T14:57:30.651Z,4.37
2017-08-15T14:59:57.089Z,6.27
2017-08-15T15:02:23.509Z,4.57
2017-08-15T15:04:49.953Z,5.83
2017-08-15T15:07:16.371Z,4.80
2017-08-15T15:09:42.810Z,5.20
2017-08-15T15:12:09.241Z,5.17
2017-08-15T15:14:35.648Z,5.63
2017-08-15T15:17:02.087Z,6.00
2017-08-15T15:19:28.520Z,4.83
2017-08-15T15:21:54.957Z,4.87
2017-08-15T15:24:21.391Z,5.40
2017-08-15T15:26:47.833Z,4.70
2017-08-15T15:29:14.295Z,4.80
2017-08-15T15:31:41.365Z,5.07
2017-08-15T15:34:07.823Z,6.13
2017-08-15T15:36:34.253Z,5.57
2017-08-15T15:39:00.629Z,4.90
2017-08-15T15:41:27.065Z,5.00
2017-08-15T15:43:53.493Z,5.03
2017-08-15T15:46:19.887Z,4.87
2017-08-15T15:48:46.320Z,5.90
2017-08-15T15:51:12.766Z,4.83
2017-08-15T15:53:39.146Z,5.20
2017-08-15T15:56:05.530Z,5.83
2017-08-15T15:58:31.904Z,6.90
2017-08-15T16:01:01.534Z,8.90
2017-08-15T16:03:27.935Z,5.50
2017-08-15T16:05:54.294Z,4.93
2017-08-15T16:08:20.684Z,4.63
2017-08-15T16:10:47.075Z,5.30
2017-08-15T16:13:13.472Z,6.60
2017-08-15T16:15:39.847Z,5.23
2017-08-15T16:18:06.252Z,5.87
2017-08-15T16:20:32.665Z,4.60
2017-08-15T16:22:59.031Z,5.40
2017-08-15T16:25:25.403Z,5.07
2017-08-15T16:27:51.841Z,6.40
2017-08-15T16:30:18.217Z,5.60
2017-08-15T16:32:44.580Z,6.17
2017-08-15T16:35:10.982Z,6.40
2017-08-15T16:37:37.379Z,7.23
2017-08-15T16:40:03.795Z,6.80
2017-08-15T16:42:30.220Z,6.63
2017-08-15T16:44:56.674Z,6.33
2017-08-15T16:47:23.106Z,5.93
2017-08-15T16:49:55.173Z,5.93
2017-08-15T16:52:21.853Z,6.13
2017-08-15T16:54:48.512Z,7.10
2017-08-15T16:57:14.956Z,6.37
2017-08-15T16:59:41.552Z,7.27
2017-08-15T17:02:07.994Z,7.73
2017-08-15T17:04:34.434Z,7.90
2017-08-15T17:07:00.783Z,6.53
2017-08-15T17:09:27.409Z,6.63
2017-08-15T17:11:55.665Z,6.53
2017-08-15T17:14:22.567Z,7.17
2017-08-15T17:16:49.139Z,6.50
2017-08-15T17:19:15.566Z,7.53
2017-08-15T17:21:42.211Z,8.23
2017-08-15T17:24:09.039Z,6.73
2017-08-15T17:26:35.658Z,6.27
2017-08-15T17:29:02.234Z,6.93
2017-08-15T17:31:29.229Z,9.47
2017-08-15T17:33:56.007Z,6.43
2017-08-15T17:36:22.363Z,8.70
2017-08-15T17:38:48.752Z,7.20
2017-08-15T17:41:15.190Z,6.00
2017-08-15T17:43:41.558Z,6.70
2017-08-15T17:46:07.955Z,7.17
2017-08-15T17:48:34.334Z,6.80
2017-08-15T17:51:00.762Z,8.00
2017-08-15T17:53:27.212Z,7.33
2017-08-15T17:55:53.588Z,7.40
2017-08-15T17:58:19.976Z,8.27
2017-08-15T18:00:46.335Z,6.27
2017-08-15T18:03:12.922Z,8.87
2017-08-15T18:05:39.303Z,7.67
2017-08-15T18:08:05.670Z,8.27
2017-08-15T18:10:32.062Z,7.17
2017-08-15T18:12:58.461Z,6.93
2017-08-15T18:15:26.040Z,6.10
2017-08-15T18:17:53.521Z,6.53
2017-08-15T18:20:19.892Z,6.20
2017-08-15T18:22:46.288Z,7.37
2017-08-15T18:25:12.728Z,6.70
2017-08-15T18:27:39.132Z,6.33
2017-08-15T18:30:05.512Z,7.07
2017-08-15T18:32:31.897Z,7.13
2017-08-15T18:34:58.281Z,9.23
2017-08-15T18:37:24.669Z,10.00
2017-08-15T18:39:51.092Z,10.67
2017-08-15T18:42:17.473Z,6.93
2017-08-15T18:44:43.854Z,7.70
2017-08-15T18:47:10.283Z,8.73
2017-08-15T18:49:36.692Z,7.50
2017-08-15T18:52:03.128Z,8.27
2017-08-15T18:54:29.548Z,7.83
2017-08-15T18:56:55.931Z,7.97
2017-08-15T18:59:22.317Z,8.10
2017-08-15T19:01:48.724Z,8.20
2017-08-15T19:04:15.138Z,8.60
2017-08-15T19:06:41.568Z,7.17
2017-08-15T19:09:07.969Z,8.17
2017-08-15T19:11:34.427Z,8.40
2017-08-15T19:14:00.814Z,7.17
2017-08-15T19:16:27.262Z,8.30
2017-08-15T19:18:53.744Z,7.37
2017-08-15T19:21:20.204Z,7.77
2017-08-15T19:23:46.587Z,7.70
2017-08-15T19:26:12.998Z,8.03
2017-08-15T19:28:39.391Z,8.50
2017-08-15T19:31:05.804Z,7.13
2017-08-15T19:33:32.215Z,7.60
2017-08-15T19:35:58.618Z,10.07
2017-08-15T19:38:25.022Z,8.60
2017-08-15T19:40:51.398Z,9.70
2017-08-15T19:43:17.817Z,8.10
2017-08-15T19:45:44.199Z,8.53
2017-08-15T19:48:10.599Z,10.20
2017-08-15T19:50:36.993Z,8.00
2017-08-15T19:53:03.364Z,7.83
2017-08-15T19:55:29.736Z,8.30
2017-08-15T19:57:56.110Z,9.20
2017-08-15T20:00:22.512Z,9.00
2017-08-15T20:02:48.927Z,8.10
2017-08-15T20:05:15.344Z,8.90
2017-08-15T20:07:41.770Z,8.37
2017-08-15T20:10:08.188Z,12.40
2017-08-15T20:12:34.631Z,8.67
2017-08-15T20:15:01.040Z,9.10
2017-08-15T20:17:27.473Z,8.90
2017-08-15T20:19:53.861Z,8.60
2017-08-15T20:22:20.287Z,10.77
2017-08-15T20:24:46.670Z,9.10
2017-08-15T20:27:13.128Z,10.03
2017-08-15T20:29:39.534Z,9.73
2017-08-15T20:32:05.960Z,11.43
2017-08-15T20:37:08.573Z,10.40
2017-08-15T20:39:34.955Z,10.87
2017-08-15T20:42:01.396Z,11.10
2017-08-15T20:44:28.229Z,10.80
2017-08-15T20:46:54.598Z,10.80
2017-08-15T20:49:21.596Z,8.97
2017-08-15T20:51:48.001Z,10.70
2017-08-15T20:54:14.427Z,13.43
2017-08-15T20:56:40.864Z,9.73
2017-08-15T20:59:07.279Z,10.40
2017-08-15T21:01:33.707Z,10.27
2017-08-15T21:04:00.171Z,13.37
2017-08-15T21:06:26.604Z,10.33
2017-08-15T21:08:53.019Z,11.10
2017-08-15T21:11:19.640Z,9.80
2017-08-15T21:13:46.112Z,10.73
2017-08-15T21:16:12.532Z,10.30
2017-08-15T21:18:38.943Z,9.87
2017-08-15T21:21:05.324Z,10.60
2017-08-15T21:23:31.729Z,12.20
2017-08-15T21:25:58.142Z,10.23
2017-08-15T21:28:24.537Z,13.33
2017-08-15T21:30:50.949Z,13.77
2017-08-15T21:33:17.372Z,14.87
2017-08-15T21:35:43.771Z,16.00
2017-08-15T21:38:10.168Z,16.73
2017-08-15T21:40:36.993Z,20.07
2017-08-15T21:43:03.363Z,21.37
2017-08-15T21:45:30.658Z,18.20
2017-08-15T21:47:57.090Z,20.20
2017-08-15T21:50:23.580Z,21.63
2017-08-15T21:52:49.975Z,21.67
2017-08-15T21:55:16.422Z,24.20
2017-08-15T21:57:42.890Z,25.23
2017-08-15T22:00:09.300Z,24.17
2017-08-15T22:02:35.762Z,23.93
2017-08-15T22:05:02.219Z,25.10
2017-08-15T22:07:28.621Z,21.50
2017-08-15T22:09:55.016Z,22.30
2017-08-15T22:12:21.425Z,21.93
2017-08-15T22:14:47.852Z,21.17
2017-08-15T22:17:14.370Z,21.00
2017-08-15T22:19:40.741Z,21.27
2017-08-15T22:22:07.153Z,20.17
2017-08-15T22:24:33.668Z,20.03
2017-08-15T22:27:00.042Z,18.13
2017-08-15T22:29:26.426Z,18.10
2017-08-15T22:31:52.812Z,17.63
2017-08-15T22:34:19.296Z,18.70
2017-08-15T22:36:45.744Z,17.70
2017-08-15T22:39:12.161Z,14.87
2017-08-15T22:41:38.646Z,15.50
2017-08-15T22:44:05.165Z,14.87
2017-08-15T22:46:31.600Z,14.10
2017-08-15T22:48:58.064Z,12.90
2017-08-15T22:51:24.485Z,12.60
2017-08-15T22:53:51.140Z,11.20
2017-08-15T22:56:17.803Z,12.60
2017-08-15T22:58:44.272Z,12.97
2017-08-15T23:01:11.222Z,11.10
2017-08-15T23:03:37.668Z,9.73
2017-08-15T23:06:04.991Z,12.57
2017-08-15T23:08:31.511Z,9.30
2017-08-15T23:10:57.929Z,10.77
2017-08-15T23:13:24.431Z,11.80
2017-08-15T23:15:51.790Z,10.23
2017-08-15T23:18:18.251Z,12.97
2017-08-15T23:20:44.703Z,11.37
2017-08-15T23:23:11.164Z,9.97
2017-08-15T23:25:37.650Z,12.00
2017-08-15T23:28:04.136Z,10.23
2017-08-15T23:30:30.792Z,10.47
2017-08-15T23:32:57.271Z,10.40
2017-08-15T23:35:23.722Z,10.60
2017-08-15T23:37:50.229Z,11.00
2017-08-15T23:40:16.808Z,11.97
2017-08-15T23:42:43.465Z,12.77
2017-08-15T23:45:09.941Z,12.77
2017-08-15T23:47:36.398Z,13.00
2017-08-15T23:50:03.109Z,14.13
2017-08-15T23:52:29.601Z,13.33
2017-08-15T23:54:56.069Z,11.37
2017-08-15T23:57:22.517Z,13.03
2017-08-15T23:59:49.006Z,17.20
